Time;durP1;ratioP1;P1;durP2;ratioP2;P2;SDS_P1;SDS_P2;PMS_P1;PMS_P2;Temp;Humidity;BMP_temperature;BMP_pressure;BME280_temperature;BME280_humidity;BME280_pressure;Samples;Min_cycle;Max_cycle;Signal;HPM_P1;HPM_P2
2022/04/09 00:02:13;;;;;;;8.53;1.97;;;;;;;4.10;79.47;98810.06;5095576;28;20333;-80
2022/04/09 00:04:38;;;;;;;8.60;1.80;;;;;;;4.15;79.45;98813.75;5094822;28;20040;-79
2022/04/09 00:07:04;;;;;;;7.10;2.10;;;;;;;4.19;79.43;98819.50;5095246;28;20119;-79
2022/04/09 00:09:29;;;;;;;4.93;1.70;;;;;;;4.11;79.43;98823.19;5095485;28;20140;-80
2022/04/09 00:11:55;;;;;;;7.13;2.65;;;;;;;4.19;79.10;98827.50;5095276;28;20032;-79
2022/04/09 00:14:20;;;;;;;6.90;2.17;;;;;;;4.20;79.08;98826.47;5095215;28;20070;-80
2022/04/09 00:16:45;;;;;;;10.93;2.47;;;;;;;4.19;79.28;98835.50;5077317;28;20471;-79
2022/04/09 00:19:11;;;;;;;9.77;2.23;;;;;;;4.17;79.45;98835.69;5095209;28;20032;-79
2022/04/09 00:21:36;;;;;;;11.13;2.53;;;;;;;4.09;78.84;98838.56;5094665;28;20035;-79
2022/04/09 00:24:02;;;;;;;6.18;2.30;;;;;;;4.11;79.30;98847.19;5076903;28;20073;-79
2022/04/09 00:26:27;;;;;;;10.32;1.90;;;;;;;4.14;79.75;98853.94;5094751;28;20576;-79
2022/04/09 00:28:53;;;;;;;6.85;2.40;;;;;;;4.09;79.57;98848.41;5095156;28;20077;-79
2022/04/09 00:31:18;;;;;;;8.33;2.43;;;;;;;4.14;79.72;98859.25;5095183;28;20062;-79
2022/04/09 00:33:43;;;;;;;12.00;2.08;;;;;;;4.17;79.31;98866.84;5095383;28;20285;-80
2022/04/09 00:36:09;;;;;;;4.13;1.57;;;;;;;4.12;79.24;98869.31;5095631;28;20552;-79
2022/04/09 00:38:34;;;;;;;8.87;2.00;;;;;;;4.13;79.48;98870.94;5095721;28;20264;-79
2022/04/09 00:40:59;;;;;;;6.73;2.37;;;;;;;4.02;79.51;98884.88;5098016;28;20085;-80
2022/04/09 00:43:25;;;;;;;6.93;1.87;;;;;;;4.02;80.01;98892.84;5101414;28;20280;-80
2022/04/09 00:45:51;;;;;;;6.37;1.90;;;;;;;3.96;80.05;98899.78;5103307;28;20085;-79
2022/04/09 00:48:20;;;;;;;7.63;2.15;;;;;;;3.96;80.09;98896.31;5103944;28;20032;-80
2022/04/09 00:50:47;;;;;;;5.32;1.70;;;;;;;4.00;80.22;98905.56;5084376;28;20096;-80
2022/04/09 00:53:15;;;;;;;9.40;1.85;;;;;;;3.93;80.22;98907.41;5104791;28;20074;-80
2022/04/09 00:58:28;;;;;;;7.47;1.67;;;;;;;3.90;80.37;98923.78;5100873;28;20039;-79
2022/04/09 01:00:54;;;;;;;4.93;1.45;;;;;;;4.00;80.11;98929.53;5080320;28;20454;-79
2022/04/09 01:03:20;;;;;;;7.15;1.65;;;;;;;3.71;80.50;98934.13;5097985;28;20069;-79
2022/04/09 01:05:46;;;;;;;;;;;;;;;3.78;80.97;98940.31;5099000;28;20086;-80
2022/04/09 01:08:12;;;;;;;13.48;2.83;;;;;;;3.76;80.79;98945.00;5080854;28;19912;-79
2022/04/09 01:10:38;;;;;;;5.10;1.95;;;;;;;3.76;81.34;98945.00;5098423;28;20067;-79
2022/04/09 01:13:04;;;;;;;8.50;1.80;;;;;;;3.78;80.96;98952.81;5098598;28;20429;-79
2022/04/09 01:15:29;;;;;;;11.65;2.05;;;;;;;3.73;81.10;98960.59;5080233;28;20031;-79
2022/04/09 01:17:55;;;;;;;7.30;2.90;;;;;;;3.64;81.38;98962.56;5098353;28;20035;-80
2022/04/09 01:20:22;;;;;;;7.30;1.70;;;;;;;3.60;81.61;98969.28;5098224;28;20058;-79
2022/04/09 01:22:48;;;;;;;8.05;1.63;;;;;;;3.55;81.98;98969.09;5079975;28;20032;-79
2022/04/09 01:25:14;;;;;;;6.43;2.25;;;;;;;3.58;81.38;98975.88;5097922;28;20058;-79
2022/04/09 01:27:40;;;;;;;9.75;1.77;;;;;;;3.56;82.08;98984.03;5098118;28;20032;-79
2022/04/09 01:30:06;;;;;;;5.38;2.30;;;;;;;3.58;81.71;98975.88;5097437;28;20118;-79
2022/04/09 01:32:32;;;;;;;7.35;2.45;;;;;;;3.60;82.00;98982.63;5098025;28;20032;-80
2022/04/09 01:35:01;;;;;;;7.65;1.63;;;;;;;3.72;81.27;98983.72;5097768;28;20032;-80
2022/04/09 01:37:27;;;;;;;5.00;1.70;;;;;;;3.56;81.89;98992.03;5079826;28;20028;-79
2022/04/09 01:39:52;;;;;;;7.70;1.60;;;;;;;3.57;82.06;98990.19;5097492;28;20030;-80
2022/04/09 01:42:21;;;;;;;6.07;2.30;;;;;;;3.58;82.04;99002.50;5098401;28;20471;-80
2022/04/09 01:44:46;;;;;;;5.97;2.13;;;;;;;3.61;81.89;99007.41;5098080;28;20034;-79
2022/04/09 01:47:11;;;;;;;11.07;1.98;;;;;;;3.66;81.99;99011.16;5098228;28;20024;-80
2022/04/09 01:49:37;;;;;;;7.65;1.80;;;;;;;3.79;81.00;99015.72;5098069;28;20107;-80
2022/04/09 01:52:02;;;;;;;4.53;1.60;;;;;;;3.82;81.17;99020.66;5097967;28;20028;-80
2022/04/09 01:54:27;;;;;;;7.00;2.58;;;;;;;3.87;81.20;99031.56;5097656;28;20487;-80
2022/04/09 01:56:53;;;;;;;6.13;1.20;;;;;;;3.72;80.94;99042.34;5098777;28;20127;-80
2022/04/09 01:59:18;;;;;;;6.30;1.63;;;;;;;3.74;81.09;99039.50;5101479;28;20036;-80
2022/04/09 02:01:43;;;;;;;9.85;2.13;;;;;;;3.83;81.35;99038.31;5101546;28;20113;-80
2022/04/09 02:04:09;;;;;;;5.70;2.83;;;;;;;3.82;80.42;99047.31;5100783;28;20036;-80
2022/04/09 02:06:34;;;;;;;5.17;1.37;;;;;;;3.70;81.03;99049.69;5101643;28;20096;-80
2022/04/09 02:09:00;;;;;;;6.45;2.05;;;;;;;3.68;81.14;99046.41;5105595;28;20036;-79
2022/04/09 02:11:26;;;;;;;6.03;1.83;;;;;;;3.60;81.78;99054.53;5081438;28;20145;-80
2022/04/09 02:13:51;;;;;;;7.43;1.40;;;;;;;3.66;81.31;99053.75;5098755;28;20032;-80
2022/04/09 02:16:17;;;;;;;3.83;1.50;;;;;;;3.62;81.47;99068.47;5097728;28;20459;-80
2022/04/09 02:18:43;;;;;;;10.55;1.42;;;;;;;3.59;81.83;99065.38;5097404;28;20039;-80
2022/04/09 02:21:10;;;;;;;5.97;1.25;;;;;;;3.62;81.81;99065.81;5098159;28;20032;-80
2022/04/09 02:23:36;;;;;;;7.80;1.80;;;;;;;3.56;81.95;99071.09;5097637;28;20059;-80
2022/04/09 02:26:01;;;;;;;5.88;1.17;;;;;;;3.71;81.85;99075.31;5097461;28;20066;-79
2022/04/09 02:28:26;;;;;;;6.00;1.90;;;;;;;3.64;81.74;99084.25;5097153;28;20077;-79
2022/04/09 02:30:52;;;;;;;9.63;1.83;;;;;;;3.60;81.79;99097.13;5097527;28;20055;-78
2022/04/09 02:33:17;;;;;;;9.60;1.20;;;;;;;3.59;81.62;99092.81;5097350;28;20374;-79
2022/04/09 02:35:42;;;;;;;6.27;1.30;;;;;;;3.64;81.98;99098.41;5098034;28;20035;-79
2022/04/09 02:38:09;;;;;;;6.03;1.40;;;;;;;3.60;81.99;99091.81;5096903;28;20394;-79
2022/04/09 02:40:35;;;;;;;4.05;1.63;;;;;;;3.64;81.31;99105.56;5098594;28;20043;-79
2022/04/09 02:43:01;;;;;;;;;;;;;;;3.56;81.66;99100.41;5097818;28;20040;-79
2022/04/09 02:45:26;;;;;;;5.30;1.40;;;;;;;3.56;82.31;99114.53;5079485;28;19908;-79
2022/04/09 02:47:51;;;;;;;7.13;1.27;;;;;;;3.53;82.02;99117.59;5097360;28;20352;-79
2022/04/09 02:50:19;;;;;;;7.07;1.30;;;;;;;3.60;81.63;99122.94;5097436;28;20343;-79
2022/04/09 02:52:44;;;;;;;5.47;1.33;;;;;;;3.65;81.70;99131.19;5097291;28;20028;-80
2022/04/09 02:55:10;;;;;;;10.20;1.60;;;;;;;3.60;81.85;99134.44;5099988;28;20028;-79
2022/04/09 02:57:40;;;;;;;8.88;2.30;;;;;;;3.64;81.83;99135.69;5109204;28;20534;-80
2022/04/09 03:00:11;;;;;;;14.70;1.50;;;;;;;3.68;81.29;99147.63;5108014;28;20025;-79
2022/04/09 03:02:37;;;;;;;3.20;1.30;;;;;;;3.63;81.55;99152.69;5107869;28;20032;-79
2022/04/09 03:05:03;;;;;;;;;;;;;;;3.66;81.64;99148.84;5087743;28;20028;-80
2022/04/09 03:07:29;;;;;;;6.57;1.65;;;;;;;3.66;81.18;99159.50;5104191;28;19908;-80
2022/04/09 03:09:54;;;;;;;5.72;1.38;;;;;;;3.60;81.83;99155.75;5099176;28;20058;-80
2022/04/09 03:12:19;;;;;;;4.10;1.00;;;;;;;3.65;81.83;99163.16;5098599;28;20040;-80
2022/04/09 03:14:45;;;;;;;7.50;1.13;;;;;;;3.68;81.30;99162.78;5079091;28;20024;-80
2022/04/09 03:17:11;;;;;;;6.78;1.20;;;;;;;3.45;81.77;99163.78;5078395;28;20028;-79
2022/04/09 03:19:36;;;;;;;3.10;1.03;;;;;;;3.44;82.09;99170.13;5078193;28;20042;-80
2022/04/09 03:22:01;;;;;;;7.47;1.30;;;;;;;3.50;82.08;99173.88;5095676;28;20028;-80
2022/04/09 03:24:27;;;;;;;8.55;2.03;;;;;;;3.51;82.30;99185.38;5095780;28;20443;-80
2022/04/09 03:26:52;;;;;;;9.20;2.03;;;;;;;3.45;81.93;99185.09;5077282;28;20081;-80
2022/04/09 03:29:17;;;;;;;6.10;1.03;;;;;;;3.29;82.78;99180.00;5095161;28;20048;-78
2022/04/09 03:31:42;;;;;;;6.03;1.73;;;;;;;3.21;83.17;99187.31;5095169;28;20360;-79
2022/04/09 03:34:08;;;;;;;6.50;1.53;;;;;;;3.16;83.03;99184.38;5095341;28;20028;-79
2022/04/09 03:36:33;;;;;;;9.75;1.10;;;;;;;3.23;83.07;99190.56;5095584;28;20269;-80
2022/04/09 03:38:59;;;;;;;7.27;1.43;;;;;;;3.28;82.74;99197.00;5095962;28;20040;-80
2022/04/09 03:41:25;;;;;;;3.08;1.05;;;;;;;3.29;82.93;99201.31;5093343;28;20031;-80
2022/04/09 03:43:51;;;;;;;6.33;1.50;;;;;;;3.37;82.88;99208.38;5071385;28;20044;-80
2022/04/09 03:46:16;;;;;;;6.05;1.50;;;;;;;3.38;82.43;99210.84;5097351;28;20273;-79
2022/04/09 03:48:42;;;;;;;4.53;1.23;;;;;;;3.27;82.69;99218.47;5097847;28;20089;-79
2022/04/09 03:51:07;;;;;;;5.13;1.75;;;;;;;3.30;83.48;99221.59;5098077;28;20081;-80
2022/04/09 03:53:34;;;;;;;6.80;1.43;;;;;;;3.39;82.35;99219.66;5097494;28;20032;-80
2022/04/09 03:55:59;;;;;;;5.22;1.25;;;;;;;3.38;82.24;99216.19;5098584;28;20081;-80
2022/04/09 03:58:26;;;;;;;6.00;1.23;;;;;;;3.45;82.05;99221.56;5096940;28;20446;-80
2022/04/09 04:00:52;;;;;;;7.25;1.23;;;;;;;3.38;81.91;99226.81;5095708;28;20497;-80
2022/04/09 04:03:19;;;;;;;5.07;1.10;;;;;;;3.18;82.94;99232.94;5095003;28;20036;-79
2022/04/09 04:05:45;;;;;;;7.50;1.45;;;;;;;3.31;83.01;99225.91;5075862;28;20123;-78
2022/04/09 04:08:11;;;;;;;6.93;0.90;;;;;;;3.25;82.59;99236.47;5076197;28;20111;-78
2022/04/09 04:10:37;;;;;;;6.43;1.20;;;;;;;3.19;82.44;99234.56;5094202;28;20115;-77
2022/04/09 04:13:04;;;;;;;4.82;1.20;;;;;;;3.12;82.87;99237.16;5075873;28;20024;-78
2022/04/09 04:15:29;;;;;;;6.30;1.50;;;;;;;3.12;83.50;99239.81;5076256;28;20103;-78
2022/04/09 04:17:55;;;;;;;4.88;1.60;;;;;;;3.09;83.78;99241.00;5094582;28;20089;-78
2022/04/09 04:20:21;;;;;;;4.57;1.30;;;;;;;3.11;83.05;99243.47;5094229;28;20036;-78
2022/04/09 04:22:46;;;;;;;7.05;1.08;;;;;;;3.17;82.79;99249.91;5076185;28;20107;-78
2022/04/09 04:25:11;;;;;;;5.85;1.48;;;;;;;3.11;83.15;99260.28;5075999;28;20077;-78
2022/04/09 04:27:45;;;;;;;7.33;1.77;;;;;;;3.08;83.05;99259.81;5093934;28;20039;-78
2022/04/09 04:30:10;;;;;;;10.30;1.42;;;;;;;3.02;83.57;99266.72;5094033;28;20051;-78
2022/04/09 04:32:36;;;;;;;4.30;1.45;;;;;;;3.12;83.40;99275.22;5093795;28;20459;-78
2022/04/09 04:35:02;;;;;;;4.30;1.45;;;;;;;3.20;82.88;99274.31;5094499;28;20033;-77
2022/04/09 04:37:44;;;;;;;7.88;1.00;;;;;;;3.07;82.93;99282.94;5093636;28;20035;-78
2022/04/09 04:40:10;;;;;;;7.15;1.42;;;;;;;3.02;83.74;99282.69;5094674;28;20083;-77
2022/04/09 04:42:36;;;;;;;;;;;;;;;3.11;82.88;99294.88;5076314;28;20028;-78
2022/04/09 04:45:03;;;;;;;5.45;1.75;;;;;;;3.11;83.52;99296.72;5095009;28;19965;-78
2022/04/09 04:47:28;;;;;;;8.57;1.92;;;;;;;3.13;83.42;99303.50;5094970;28;20039;-80
2022/04/09 04:49:53;;;;;;;8.47;1.97;;;;;;;3.24;83.10;99304.03;5095473;28;20032;-80
2022/04/09 04:52:19;;;;;;;6.83;1.53;;;;;;;3.29;82.97;99304.31;5096121;28;20470;-82
2022/04/09 04:54:44;;;;;;;5.90;1.40;;;;;;;3.16;83.27;99322.78;5094812;28;20481;-80
2022/04/09 04:57:10;;;;;;;6.88;1.33;;;;;;;3.33;82.93;99313.59;5095360;28;20082;-81
2022/04/09 04:59:35;;;;;;;4.07;0.90;;;;;;;3.37;82.59;99317.53;5095963;28;20039;-81
2022/04/09 05:02:00;;;;;;;6.15;1.13;;;;;;;3.40;82.70;99322.50;5096069;28;20104;-80
2022/04/09 05:04:26;;;;;;;4.60;1.63;;;;;;;3.33;82.83;99326.91;5096691;28;20042;-80
2022/04/09 05:06:51;;;;;;;7.17;0.90;;;;;;;3.42;82.35;99328.44;5097561;28;20060;-80
2022/04/09 05:09:18;;;;;;;17.08;1.52;;;;;;;3.44;81.99;99326.41;5096288;28;20562;-79
2022/04/09 05:11:44;;;;;;;2.65;0.85;;;;;;;3.49;81.53;99334.69;5095624;28;20035;-79
2022/04/09 05:14:09;;;;;;;9.52;1.80;;;;;;;3.59;81.54;99335.19;5095384;28;20032;-80
2022/04/09 05:16:34;;;;;;;7.38;1.15;;;;;;;3.58;81.79;99338.91;5095096;28;20039;-80
2022/04/09 05:19:00;;;;;;;4.20;1.10;;;;;;;3.66;81.63;99337.97;5094733;28;20043;-80
2022/04/09 05:21:25;;;;;;;3.93;1.23;;;;;;;3.69;80.78;99345.56;5076609;28;20051;-80
2022/04/09 05:23:51;;;;;;;3.17;1.13;;;;;;;3.76;80.70;99347.28;5095127;28;20054;-79
2022/04/09 05:26:16;;;;;;;6.67;1.77;;;;;;;3.75;80.07;99355.50;5077650;28;20068;-80
2022/04/09 05:28:41;;;;;;;10.85;1.27;;;;;;;3.86;79.88;99349.66;5099095;28;20246;-80
2022/04/09 05:31:09;;;;;;;6.37;0.77;;;;;;;3.76;80.01;99355.28;5098638;28;20024;-80
2022/04/09 05:33:34;;;;;;;5.28;1.30;;;;;;;3.92;79.49;99356.09;5098053;28;20030;-79
2022/04/09 05:35:59;;;;;;;5.60;1.30;;;;;;;3.74;79.12;99354.69;5098294;28;20107;-79
2022/04/09 05:38:25;;;;;;;5.50;1.10;;;;;;;3.67;79.68;99369.75;5098053;28;20466;-79
2022/04/09 05:40:50;;;;;;;3.83;1.08;;;;;;;3.76;79.47;99367.81;5098196;28;20032;-80
2022/04/09 05:43:15;;;;;;;5.10;1.75;;;;;;;3.87;79.06;99369.16;5098206;28;20078;-80
2022/04/09 05:45:41;;;;;;;4.37;1.10;;;;;;;3.85;79.14;99388.00;5098805;28;20036;-80
2022/04/09 05:48:06;;;;;;;4.43;1.37;;;;;;;3.90;78.90;99384.78;5099205;28;20032;-81
2022/04/09 05:50:31;;;;;;;6.43;1.20;;;;;;;3.87;79.31;99385.13;5098778;28;20458;-81
2022/04/09 05:52:57;;;;;;;7.63;1.23;;;;;;;3.89;79.05;99393.78;5098121;28;20040;-81
2022/04/09 05:55:22;;;;;;;5.40;1.08;;;;;;;4.02;78.29;99409.91;5079694;28;20028;-78
2022/04/09 05:57:48;;;;;;;4.85;1.08;;;;;;;3.99;78.33;99410.28;5098770;28;20382;-79
2022/04/09 06:00:16;;;;;;;19.20;2.10;;;;;;;3.85;78.53;99419.97;5098662;28;20031;-78
2022/04/09 06:02:41;;;;;;;7.28;1.35;;;;;;;3.82;79.04;99421.16;5098191;28;20058;-79
2022/04/09 06:05:07;;;;;;;10.65;0.95;;;;;;;3.94;78.80;99423.38;5097977;28;20512;-80
2022/04/09 06:07:32;;;;;;;4.55;1.20;;;;;;;4.03;78.49;99433.72;5097879;28;20060;-78
2022/04/09 06:09:58;;;;;;;5.47;1.53;;;;;;;3.98;78.26;99435.28;5099292;28;20035;-78
2022/04/09 06:12:23;;;;;;;8.82;1.25;;;;;;;4.09;79.12;99450.81;5097523;28;20043;-79
2022/04/09 06:14:49;;;;;;;4.97;0.90;;;;;;;4.14;78.53;99441.22;5098366;28;20429;-79
2022/04/09 06:17:14;;;;;;;2.80;1.13;;;;;;;4.05;78.51;99445.03;5098171;28;20056;-78
2022/04/09 06:19:40;;;;;;;5.13;1.73;;;;;;;4.13;79.50;99450.22;5098392;28;20036;-80
2022/04/09 06:22:05;;;;;;;3.95;1.02;;;;;;;4.22;77.54;99450.13;5098397;28;20031;-78
2022/04/09 06:24:30;;;;;;;4.50;1.30;;;;;;;4.05;78.02;99461.03;5097383;28;20039;-78
2022/04/09 06:26:56;;;;;;;4.17;1.23;;;;;;;4.26;77.69;99449.59;5098124;28;20123;-77
2022/04/09 06:29:21;;;;;;;7.67;1.70;;;;;;;4.36;76.52;99451.94;5096890;28;20059;-79
2022/04/09 06:31:47;;;;;;;7.80;1.67;;;;;;;4.50;76.50;99464.38;5096562;28;20266;-78
2022/04/09 06:34:16;;;;;;;2.03;0.65;;;;;;;4.48;76.49;99466.41;5096973;28;20058;-79
2022/04/09 06:36:42;;;;;;;5.10;1.40;;;;;;;4.53;76.49;99470.19;5096778;28;20028;-78
2022/04/09 06:39:07;;;;;;;2.73;1.10;;;;;;;4.56;76.52;99476.16;5096386;28;20451;-78
2022/04/09 06:41:33;;;;;;;5.33;0.97;;;;;;;4.63;76.64;99472.56;5096205;28;20032;-78
2022/04/09 06:43:59;;;;;;;6.22;1.77;;;;;;;4.77;75.67;99484.19;5097425;28;20272;-78
2022/04/09 06:46:25;;;;;;;6.07;1.45;;;;;;;4.55;75.45;99483.34;5078602;28;20036;-78
2022/04/09 06:48:51;;;;;;;7.70;1.40;;;;;;;4.71;75.56;99476.91;5096853;28;20119;-78
2022/04/09 06:51:17;;;;;;;;;;;;;;;4.67;75.08;99486.31;5096562;28;20118;-77
2022/04/09 06:53:42;;;;;;;6.68;1.45;;;;;;;4.99;75.22;99501.03;5096314;28;19981;-78
2022/04/09 06:56:07;;;;;;;2.90;0.90;;;;;;;5.03;74.34;99488.91;5079222;28;20366;-78
2022/04/09 06:58:33;;;;;;;4.73;1.93;;;;;;;4.76;74.60;99495.88;5078115;28;20258;-77
2022/04/09 07:00:59;;;;;;;5.70;1.15;;;;;;;4.65;76.27;99509.72;5077910;28;20031;-76
2022/04/09 07:03:25;;;;;;;6.40;0.88;;;;;;;4.57;77.04;99502.66;5095358;28;20036;-77
2022/04/09 07:05:51;;;;;;;5.45;0.90;;;;;;;4.82;76.74;99511.13;5096959;28;20036;-78
2022/04/09 07:08:16;;;;;;;5.00;1.50;;;;;;;4.92;75.83;99516.97;5096759;28;20039;-77
2022/04/09 07:10:41;;;;;;;7.20;1.20;;;;;;;5.22;75.12;99510.47;5096350;28;20024;-78
2022/04/09 07:13:07;;;;;;;4.45;1.10;;;;;;;5.26;73.65;99528.78;5096852;28;20107;-77
2022/04/09 07:15:33;;;;;;;3.97;0.93;;;;;;;5.16;73.58;99516.59;5095987;28;20493;-77
2022/04/09 07:17:58;;;;;;;;;;;;;;;5.12;74.29;99526.00;5096609;28;20028;-77
2022/04/09 07:20:24;;;;;;;4.40;1.20;;;;;;;5.35;73.59;99531.13;5096720;28;20370;-77
2022/04/09 07:22:49;;;;;;;4.22;1.13;;;;;;;5.32;73.05;99531.50;5097285;28;20440;-78
2022/04/09 07:25:16;;;;;;;4.50;1.20;;;;;;;5.41;72.63;99534.84;5095771;28;20043;-77
2022/04/09 07:27:47;;;;;;;3.78;1.13;;;;;;;5.37;73.15;99541.63;5078511;28;20119;-78
2022/04/09 07:30:13;;;;;;;5.10;1.40;;;;;;;5.23;73.59;99535.31;5097988;28;20098;-79
2022/04/09 07:32:39;;;;;;;3.72;1.02;;;;;;;5.17;72.90;99539.59;5081132;28;20032;-80
2022/04/09 07:35:05;;;;;;;5.95;1.20;;;;;;;5.05;73.84;99538.44;5080386;28;20142;-77
2022/04/09 07:37:32;;;;;;;6.25;2.03;;;;;;;5.04;74.17;99547.47;5096491;28;20071;-78
2022/04/09 07:39:58;;;;;;;3.67;0.95;;;;;;;5.17;74.57;99552.97;5097461;28;20028;-79
2022/04/09 07:42:24;;;;;;;4.90;0.90;;;;;;;5.45;73.68;99547.63;5096601;28;20462;-78
2022/04/09 07:44:49;;;;;;;6.50;1.58;;;;;;;5.47;72.86;99550.94;5096222;28;20071;-77
2022/04/09 07:47:15;;;;;;;6.23;1.40;;;;;;;5.45;72.91;99557.50;5096300;28;20032;-79
2022/04/09 07:49:44;;;;;;;4.72;1.05;;;;;;;5.26;73.98;99563.50;5096583;28;20258;-79
2022/04/09 07:52:10;;;;;;;10.25;1.25;;;;;;;5.33;75.17;99565.22;5079522;28;20028;-78
2022/04/09 07:54:36;;;;;;;6.43;2.13;;;;;;;4.93;77.57;99588.03;5094495;28;20059;-77
2022/04/09 07:57:01;;;;;;;9.67;1.30;;;;;;;4.87;77.85;99578.91;5095120;28;20070;-77
2022/04/09 07:59:27;;;;;;;5.00;1.45;;;;;;;4.92;77.21;99580.19;5094406;28;20059;-77
2022/04/09 08:01:52;;;;;;;10.20;1.10;;;;;;;4.69;76.88;99589.19;5095698;28;20443;-77
2022/04/09 08:04:17;;;;;;;9.47;2.00;;;;;;;4.85;78.24;99598.81;5076037;28;20028;-77
2022/04/09 08:06:42;;;;;;;5.73;1.37;;;;;;;4.90;77.43;99599.06;5076620;28;20020;-77
2022/04/09 08:09:08;;;;;;;6.93;1.97;;;;;;;5.04;77.08;99606.19;5095462;28;20028;-78
2022/04/09 08:11:33;;;;;;;6.32;1.25;;;;;;;5.29;76.93;99609.34;5077443;28;20031;-77
2022/04/09 08:13:59;;;;;;;4.87;1.57;;;;;;;5.37;76.01;99613.75;5077196;28;20035;-78
2022/04/09 08:16:25;;;;;;;5.40;1.05;;;;;;;5.62;76.21;99606.16;5095138;28;20059;-77
2022/04/09 08:18:50;;;;;;;6.15;1.27;;;;;;;5.71;74.99;99610.34;5097564;28;20040;-78
2022/04/09 08:21:17;;;;;;;6.20;1.60;;;;;;;5.80;76.06;99601.97;5098579;28;20368;-78
2022/04/09 08:23:43;;;;;;;4.35;0.90;;;;;;;5.75;71.77;99599.06;5096831;28;20034;-78
2022/04/09 08:26:08;;;;;;;8.07;1.42;;;;;;;5.70;72.09;99603.34;5078435;28;20103;-80
2022/04/09 08:28:36;;;;;;;4.80;1.47;;;;;;;5.84;73.44;99605.09;5097634;28;20039;-78
2022/04/09 08:31:02;;;;;;;7.90;1.98;;;;;;;5.93;71.74;99610.13;5097367;28;20454;-78
2022/04/09 08:33:27;;;;;;;4.07;1.40;;;;;;;6.05;71.77;99609.59;5095897;28;20067;-78
2022/04/09 08:35:53;;;;;;;7.10;1.63;;;;;;;6.14;71.13;99616.44;5095801;28;20066;-77
2022/04/09 08:38:18;;;;;;;5.78;1.83;;;;;;;6.30;70.23;99612.63;5095926;28;20121;-77
2022/04/09 08:40:45;;;;;;;6.87;1.33;;;;;;;6.23;70.71;99616.09;5094888;28;20492;-77
2022/04/09 08:43:10;;;;;;;5.50;1.27;;;;;;;6.28;69.37;99627.03;5076273;28;20361;-77
2022/04/09 08:45:39;;;;;;;4.43;0.90;;;;;;;6.41;68.72;99622.78;5075863;28;20058;-77
2022/04/09 08:48:06;;;;;;;1.92;0.82;;;;;;;6.46;70.20;99613.13;5095160;28;20055;-79
2022/04/09 08:50:32;;;;;;;7.95;1.73;;;;;;;6.56;68.46;99618.97;5096370;28;20032;-78
2022/04/09 08:53:02;;;;;;;5.55;1.27;;;;;;;6.68;67.36;99613.03;5095406;28;20028;-78
2022/04/09 08:55:28;;;;;;;10.52;1.35;;;;;;;6.56;68.63;99618.97;5095531;28;20372;-78
2022/04/09 08:57:53;;;;;;;6.40;1.83;;;;;;;6.67;67.55;99620.22;5095574;28;20096;-78
2022/04/09 09:00:19;;;;;;;3.87;1.60;;;;;;;6.68;66.97;99613.84;5076593;28;20135;-78
2022/04/09 09:02:57;;;;;;;6.03;1.00;;;;;;;6.68;65.96;99615.69;5099029;28;20024;-78
2022/04/09 09:05:29;;;;;;;3.05;0.90;;;;;;;6.81;65.76;99616.56;5083055;28;20118;-78
2022/04/09 09:07:55;;;;;;;1.58;0.60;;;;;;;7.06;64.14;99616.06;5100347;28;20028;-79
2022/04/09 09:10:21;;;;;;;2.50;0.57;;;;;;;6.88;63.01;99619.28;5100027;28;20089;-77
2022/04/09 09:13:00;;;;;;;2.80;0.95;;;;;;;7.02;62.17;99633.53;5082820;28;20035;-78
2022/04/09 09:15:26;;;;;;;6.78;1.08;;;;;;;7.18;60.85;99623.28;5100302;28;20038;-79
2022/04/09 09:17:56;;;;;;;1.67;0.50;;;;;;;7.17;60.29;99635.03;5083255;28;20028;-78
2022/04/09 09:20:22;;;;;;;1.20;0.45;;;;;;;7.41;59.57;99622.94;5101524;28;20434;-79
2022/04/09 09:22:49;;;;;;;2.47;0.60;;;;;;;7.31;59.26;99636.75;5102355;28;20059;-79
2022/04/09 09:25:14;;;;;;;3.70;0.68;;;;;;;7.22;59.83;99648.66;5100955;28;20039;-78
2022/04/09 09:27:40;;;;;;;0.73;0.45;;;;;;;7.36;60.51;99646.00;5081990;28;20044;-79
2022/04/09 09:30:09;;;;;;;2.65;0.50;;;;;;;7.50;60.70;99650.38;5083857;28;20055;-78
2022/04/09 09:32:35;;;;;;;0.50;0.35;;;;;;;7.28;59.88;99645.19;5103897;28;20032;-78
2022/04/09 09:35:01;;;;;;;2.50;0.75;;;;;;;7.11;60.95;99638.53;5089134;28;20024;-78
2022/04/09 09:37:28;;;;;;;3.33;1.08;;;;;;;6.93;61.18;99660.53;5088894;28;20077;-78
2022/04/09 09:39:54;;;;;;;2.22;0.80;;;;;;;6.81;61.44;99661.28;5106907;28;20111;-77
2022/04/09 09:42:21;;;;;;;2.00;1.08;;;;;;;6.78;61.51;99656.34;5106760;28;20028;-78
2022/04/09 09:44:48;;;;;;;3.78;1.00;;;;;;;6.66;61.11;99676.66;5089575;28;20028;-77
2022/04/09 09:47:14;;;;;;;1.45;0.65;;;;;;;6.48;63.13;99664.59;5106715;28;20028;-78
2022/04/09 09:49:47;;;;;;;3.85;0.70;;;;;;;6.05;65.51;99676.47;5107153;28;20039;-78
2022/04/09 09:52:13;;;;;;;1.77;0.50;;;;;;;5.75;67.36;99681.91;5106895;28;20034;-77
2022/04/09 09:54:58;;;;;;;2.38;0.68;;;;;;;5.76;68.10;99686.25;5105606;28;20088;-77
2022/04/09 09:57:26;;;;;;;2.22;0.90;;;;;;;6.00;68.12;99693.09;5100072;28;20039;-77
2022/04/09 09:59:53;;;;;;;2.50;0.80;;;;;;;6.05;68.83;99684.47;5101014;28;20090;-77
2022/04/09 10:02:23;;;;;;;3.33;0.80;;;;;;;5.98;70.25;99688.94;5102603;28;20036;-78
2022/04/09 10:04:48;;;;;;;1.98;0.85;;;;;;;6.12;67.60;99677.31;5088397;28;20032;-78
2022/04/09 10:07:18;;;;;;;2.20;0.70;;;;;;;6.06;67.95;99664.75;5105270;28;20077;-78
2022/04/09 10:09:44;;;;;;;2.03;0.70;;;;;;;6.22;67.90;99669.78;5084851;28;20278;-78
2022/04/09 10:12:14;;;;;;;2.35;0.60;;;;;;;6.21;66.62;99677.00;5083877;28;20024;-78
2022/04/09 10:14:40;;;;;;;2.35;0.85;;;;;;;6.47;67.36;99676.31;5102107;28;20070;-78
2022/04/09 10:17:07;;;;;;;3.42;0.77;;;;;;;6.56;64.73;99663.63;5098424;28;20115;-76
2022/04/09 10:19:39;;;;;;;1.88;0.75;;;;;;;6.75;64.44;99665.59;5096499;28;20474;-76
2022/04/09 10:22:05;;;;;;;3.60;1.08;;;;;;;7.06;64.83;99659.72;5095734;28;20050;-74
2022/04/09 10:24:31;;;;;;;2.83;1.00;;;;;;;7.46;64.12;99679.44;5095249;28;20093;-75
2022/04/09 10:26:58;;;;;;;2.42;0.93;;;;;;;7.77;62.80;99672.69;5095730;28;20111;-75
2022/04/09 10:29:24;;;;;;;3.78;0.85;;;;;;;7.65;61.24;99667.94;5095679;28;20093;-74
2022/04/09 10:31:51;;;;;;;3.67;1.10;;;;;;;7.73;61.61;99687.50;5077462;28;20032;-74
2022/04/09 10:34:17;;;;;;;3.78;1.38;;;;;;;7.86;60.41;99682.19;5095422;28;20114;-75
2022/04/09 10:36:42;;;;;;;3.25;1.42;;;;;;;7.88;59.49;99675.56;5095656;28;20461;-74
2022/04/09 10:39:39;;;;;;;3.53;1.10;;;;;;;8.26;59.33;99662.34;5095261;28;20036;-75
2022/04/09 10:42:05;;;;;;;3.38;1.38;;;;;;;8.47;58.23;99672.06;5095517;28;20088;-75
2022/04/09 10:44:42;;;;;;;3.55;1.48;;;;;;;8.80;56.84;99671.13;5095425;28;20395;-75
2022/04/09 10:47:10;;;;;;;2.88;0.82;;;;;;;8.95;55.35;99671.72;5095886;28;20043;-75
2022/04/09 10:49:37;;;;;;;3.53;1.10;;;;;;;8.81;55.36;99656.66;5077018;28;20032;-76
2022/04/09 10:52:03;;;;;;;;;;;;;;;8.66;54.32;99673.88;5077472;28;20032;-75
2022/04/09 10:54:29;;;;;;;7.03;1.77;;;;;;;8.80;54.45;99677.34;5076698;28;19916;-75
2022/04/09 10:56:54;;;;;;;2.40;0.52;;;;;;;8.97;53.20;99678.50;5095301;28;20034;-75
2022/04/09 10:59:31;;;;;;;1.57;0.60;;;;;;;9.21;53.69;99671.59;5095458;28;20024;-76
2022/04/09 11:01:56;;;;;;;0.98;0.60;;;;;;;9.43;51.52;99677.50;5095483;28;20370;-75
2022/04/09 11:04:37;;;;;;;2.05;0.65;;;;;;;9.23;50.20;99699.09;5077719;28;20058;-79
2022/04/09 11:07:11;;;;;;;4.20;0.90;;;;;;;7.71;58.96;99733.31;5097245;28;20489;-77
2022/04/09 11:09:51;;;;;;;0.93;0.47;;;;;;;6.35;64.13;99752.00;5097549;28;20021;-78
2022/04/09 11:12:21;;;;;;;0.88;0.40;;;;;;;5.69;67.08;99743.34;5097636;28;20054;-77
2022/04/09 11:14:49;;;;;;;0.32;0.20;;;;;;;5.34;70.41;99756.53;5097104;28;20028;-78
2022/04/09 11:17:38;;;;;;;0.77;0.47;;;;;;;5.35;70.60;99749.34;5096976;28;20036;-77
2022/04/09 11:20:13;;;;;;;2.25;0.40;;;;;;;5.30;71.23;99765.94;5096519;28;20032;-78
2022/04/09 11:22:43;;;;;;;2.05;0.60;;;;;;;5.09;72.63;99777.38;5097360;28;20034;-78
2022/04/09 11:25:18;;;;;;;2.03;0.60;;;;;;;4.36;78.08;99786.13;5095878;28;20353;-78
2022/04/09 11:27:43;;;;;;;2.10;0.50;;;;;;;3.97;82.11;99772.97;5079138;28;20081;-77
2022/04/09 11:30:09;;;;;;;1.00;0.50;;;;;;;3.59;84.01;99772.03;5097294;28;20138;-77
2022/04/09 11:32:38;;;;;;;1.85;0.70;;;;;;;3.66;84.62;99762.34;5098402;28;20028;-78
2022/04/09 11:35:08;;;;;;;4.93;0.70;;;;;;;3.71;84.79;99769.81;5098440;28;20027;-77
2022/04/09 11:37:38;;;;;;;1.55;0.77;;;;;;;3.89;83.65;99758.88;5099008;28;20028;-78
2022/04/09 11:40:06;;;;;;;1.27;0.52;;;;;;;4.34;84.84;99761.47;5099621;28;20028;-78
2022/04/09 11:42:51;;;;;;;1.80;0.60;;;;;;;4.86;82.67;99766.78;5100965;28;20028;-78
2022/04/09 11:45:33;;;;;;;1.13;0.50;;;;;;;4.98;79.21;99759.16;5079789;28;20020;-78